TFM - Tactical Decision Aid (Experimental) INFO Settings
 
 

ID: Runway Winds: CIG/VIS Threshold: METAR Board: Map:

kiad - Washington-Dulles Intl

Updated at: 1750 UTC 19 Sep 2014
Latest TAF at: 1723 UTC 19 Sep 2014

TAF Board

Time1652Z19/18Z19/19Z19/20Z19/21Z19/22Z19/23Z20/00Z20/01Z20/02Z20/03Z20/04Z20/05Z20/06Z
TypeOBSPRVLPRVLPRVLPRVLPRVLPRVLPRVLPRVLPRVLPRVLPRVLPRVLPRVL
VIS10>6>6>6>6>6>6>6>6>6>6>6>65
CIG--50505050505050505050505015
CoverSCTBKNBKNBKNBKNBKNBKNBKNBKNBKNBKNBKNBKNBKN
FltCat--VFRVFRVFRVFRVFRVFRVFRVFRVFRVFRVFRVFRMVFR
WX--------------------------BR
WDir7090909090130130130130130130130130VRB
WSpd45555555555553
WGst----------------------------
TAF
KIAD 191723Z 1918/2024 09005KT P6SM BKN050
  FM192200 13005KT P6SM BKN050
  FM200600 VRB03KT 5SM BR SCT008 BKN015
  FM201200 VRB03KT P6SM SCT008 BKN015
  FM201600 18006KT P6SM SCT050


METAR
KIAD 191652Z 07004KT 10SM SCT085 SCT250 21/13 A3027 RMK AO2 SLP250 T02060128

TAF/METAR Board Legend

Potential Impact
  None Marginal Slight Moderate High
Visibility (sm) > ≤X≤ <
Ceiling (100 ft) > ≤X≤ <
Wind Speed (kt) <10 10≤X<20 20≤X<30 ≥30
Wind Gust (kt) <15 15≤X<25 25≤X<35 ≥35
Weather No Wx Reported VCTS -TS,-FZRA TS,FZRA +TS,+FZRA


Notice: Undefined index: kiad in /caws/site/new_awc/application/modules/trafficflowmgmt/controllers/TdaController.php on line 173

Notice: Undefined index: kiad in /caws/site/new_awc/application/modules/trafficflowmgmt/controllers/TdaController.php on line 174